sensor_id;sensor_type;location;lat;lon;timestamp;P1;durP1;ratioP1;P2;durP2;ratioP2
8407;SDS011;4241;48.452;9.216;2022-10-18T00:00:13;455.23;;;162.77;;
8407;SDS011;4241;48.452;9.216;2022-10-18T00:02:40;454.60;;;161.80;;
8407;SDS011;4241;48.452;9.216;2022-10-18T00:05:07;454.23;;;158.80;;
8407;SDS011;4241;48.452;9.216;2022-10-18T00:07:35;455.67;;;160.70;;
8407;SDS011;4241;48.452;9.216;2022-10-18T00:10:02;456.60;;;162.47;;
8407;SDS011;4241;48.452;9.216;2022-10-18T00:12:32;459.70;;;167.07;;
8407;SDS011;4241;48.452;9.216;2022-10-18T00:15:00;454.40;;;160.67;;
8407;SDS011;4241;48.452;9.216;2022-10-18T00:17:27;455.27;;;161.50;;
8407;SDS011;4241;48.452;9.216;2022-10-18T00:19:54;460.63;;;165.60;;
8407;SDS011;4241;48.452;9.216;2022-10-18T00:22:21;464.93;;;169.63;;
8407;SDS011;4241;48.452;9.216;2022-10-18T00:24:52;454.00;;;160.33;;
8407;SDS011;4241;48.452;9.216;2022-10-18T00:27:19;454.43;;;158.53;;
8407;SDS011;4241;48.452;9.216;2022-10-18T00:29:48;454.33;;;161.33;;
8407;SDS011;4241;48.452;9.216;2022-10-18T00:32:18;454.17;;;161.13;;
8407;SDS011;4241;48.452;9.216;2022-10-18T00:34:45;454.70;;;161.07;;
8407;SDS011;4241;48.452;9.216;2022-10-18T00:37:12;454.57;;;160.73;;
8407;SDS011;4241;48.452;9.216;2022-10-18T00:39:39;455.03;;;161.40;;
8407;SDS011;4241;48.452;9.216;2022-10-18T00:42:06;453.30;;;160.30;;
8407;SDS011;4241;48.452;9.216;2022-10-18T00:47:40;452.07;;;159.50;;
8407;SDS011;4241;48.452;9.216;2022-10-18T00:50:10;453.13;;;157.30;;
8407;SDS011;4241;48.452;9.216;2022-10-18T00:52:39;451.77;;;157.53;;
8407;SDS011;4241;48.452;9.216;2022-10-18T00:55:08;452.27;;;159.13;;
8407;SDS011;4241;48.452;9.216;2022-10-18T00:57:36;455.50;;;161.77;;
8407;SDS011;4241;48.452;9.216;2022-10-18T01:00:05;452.27;;;157.63;;
8407;SDS011;4241;48.452;9.216;2022-10-18T01:02:35;450.73;;;154.60;;
8407;SDS011;4241;48.452;9.216;2022-10-18T01:05:03;451.03;;;156.63;;
8407;SDS011;4241;48.452;9.216;2022-10-18T01:07:37;452.23;;;158.27;;
8407;SDS011;4241;48.452;9.216;2022-10-18T01:10:26;451.60;;;158.37;;
8407;SDS011;4241;48.452;9.216;2022-10-18T01:13:03;451.80;;;158.13;;
8407;SDS011;4241;48.452;9.216;2022-10-18T01:15:42;451.20;;;157.73;;
8407;SDS011;4241;48.452;9.216;2022-10-18T01:18:25;454.17;;;160.50;;
8407;SDS011;4241;48.452;9.216;2022-10-18T01:21:03;453.13;;;158.57;;
8407;SDS011;4241;48.452;9.216;2022-10-18T01:23:44;452.23;;;159.00;;
8407;SDS011;4241;48.452;9.216;2022-10-18T01:26:33;448.13;;;155.23;;
8407;SDS011;4241;48.452;9.216;2022-10-18T01:29:11;447.87;;;153.10;;
8407;SDS011;4241;48.452;9.216;2022-10-18T01:31:48;459.00;;;165.10;;
8407;SDS011;4241;48.452;9.216;2022-10-18T01:34:19;452.80;;;156.90;;
8407;SDS011;4241;48.452;9.216;2022-10-18T01:36:47;451.53;;;157.07;;
8407;SDS011;4241;48.452;9.216;2022-10-18T01:39:19;453.53;;;160.10;;
8407;SDS011;4241;48.452;9.216;2022-10-18T01:41:49;454.83;;;160.87;;
8407;SDS011;4241;48.452;9.216;2022-10-18T01:44:20;454.17;;;160.50;;
8407;SDS011;4241;48.452;9.216;2022-10-18T01:46:51;454.13;;;160.60;;
8407;SDS011;4241;48.452;9.216;2022-10-18T01:49:20;451.97;;;157.00;;
8407;SDS011;4241;48.452;9.216;2022-10-18T01:51:47;453.83;;;160.40;;
8407;SDS011;4241;48.452;9.216;2022-10-18T01:54:16;454.07;;;159.83;;
8407;SDS011;4241;48.452;9.216;2022-10-18T01:56:48;454.83;;;160.83;;
8407;SDS011;4241;48.452;9.216;2022-10-18T01:59:23;454.70;;;159.67;;
8407;SDS011;4241;48.452;9.216;2022-10-18T02:02:08;458.07;;;162.27;;
8407;SDS011;4241;48.452;9.216;2022-10-18T02:04:45;456.63;;;162.53;;
8407;SDS011;4241;48.452;9.216;2022-10-18T02:07:21;457.13;;;163.63;;
8407;SDS011;4241;48.452;9.216;2022-10-18T02:09:55;456.03;;;161.30;;
8407;SDS011;4241;48.452;9.216;2022-10-18T02:12:30;458.73;;;163.80;;
8407;SDS011;4241;48.452;9.216;2022-10-18T02:14:58;462.43;;;166.23;;
8407;SDS011;4241;48.452;9.216;2022-10-18T02:17:29;456.40;;;162.20;;
8407;SDS011;4241;48.452;9.216;2022-10-18T02:19:57;458.23;;;163.83;;
8407;SDS011;4241;48.452;9.216;2022-10-18T02:22:27;464.97;;;171.17;;
8407;SDS011;4241;48.452;9.216;2022-10-18T02:24:57;457.90;;;163.13;;
8407;SDS011;4241;48.452;9.216;2022-10-18T02:27:27;459.93;;;167.13;;
8407;SDS011;4241;48.452;9.216;2022-10-18T02:29:55;457.77;;;163.90;;
8407;SDS011;4241;48.452;9.216;2022-10-18T02:32:24;466.00;;;172.13;;
8407;SDS011;4241;48.452;9.216;2022-10-18T02:34:58;459.73;;;164.87;;
8407;SDS011;4241;48.452;9.216;2022-10-18T02:37:31;458.33;;;164.43;;
8407;SDS011;4241;48.452;9.216;2022-10-18T02:40:01;461.03;;;166.70;;
8407;SDS011;4241;48.452;9.216;2022-10-18T02:42:32;465.13;;;171.47;;
8407;SDS011;4241;48.452;9.216;2022-10-18T02:45:00;459.97;;;165.37;;
8407;SDS011;4241;48.452;9.216;2022-10-18T02:47:27;459.57;;;165.27;;
8407;SDS011;4241;48.452;9.216;2022-10-18T02:49:54;459.20;;;167.10;;
8407;SDS011;4241;48.452;9.216;2022-10-18T02:52:22;460.77;;;167.37;;
8407;SDS011;4241;48.452;9.216;2022-10-18T02:54:49;459.50;;;165.27;;
8407;SDS011;4241;48.452;9.216;2022-10-18T02:57:16;459.03;;;166.10;;
8407;SDS011;4241;48.452;9.216;2022-10-18T02:59:43;459.83;;;167.93;;
8407;SDS011;4241;48.452;9.216;2022-10-18T03:02:10;461.07;;;166.97;;
8407;SDS011;4241;48.452;9.216;2022-10-18T03:04:37;457.13;;;164.40;;
8407;SDS011;4241;48.452;9.216;2022-10-18T03:07:04;460.80;;;166.70;;
8407;SDS011;4241;48.452;9.216;2022-10-18T03:09:33;459.60;;;166.13;;
8407;SDS011;4241;48.452;9.216;2022-10-18T03:12:00;460.17;;;166.43;;
8407;SDS011;4241;48.452;9.216;2022-10-18T03:14:27;461.13;;;166.63;;
8407;SDS011;4241;48.452;9.216;2022-10-18T03:16:54;461.43;;;166.70;;
8407;SDS011;4241;48.452;9.216;2022-10-18T03:19:21;461.40;;;168.30;;
8407;SDS011;4241;48.452;9.216;2022-10-18T03:21:48;463.03;;;168.93;;
8407;SDS011;4241;48.452;9.216;2022-10-18T03:24:15;460.83;;;167.90;;
8407;SDS011;4241;48.452;9.216;2022-10-18T03:26:44;461.27;;;168.47;;
8407;SDS011;4241;48.452;9.216;2022-10-18T03:29:11;461.50;;;170.50;;
8407;SDS011;4241;48.452;9.216;2022-10-18T03:31:38;459.13;;;166.83;;
8407;SDS011;4241;48.452;9.216;2022-10-18T03:34:05;460.67;;;167.57;;
8407;SDS011;4241;48.452;9.216;2022-10-18T03:36:32;461.17;;;167.53;;
8407;SDS011;4241;48.452;9.216;2022-10-18T03:38:59;460.17;;;167.33;;
8407;SDS011;4241;48.452;9.216;2022-10-18T03:41:26;459.97;;;167.83;;
8407;SDS011;4241;48.452;9.216;2022-10-18T03:43:55;459.17;;;165.80;;
8407;SDS011;4241;48.452;9.216;2022-10-18T03:46:22;461.30;;;166.37;;
8407;SDS011;4241;48.452;9.216;2022-10-18T03:48:49;462.17;;;169.00;;
8407;SDS011;4241;48.452;9.216;2022-10-18T03:51:16;462.43;;;168.80;;
8407;SDS011;4241;48.452;9.216;2022-10-18T03:53:43;461.47;;;167.67;;
8407;SDS011;4241;48.452;9.216;2022-10-18T03:56:10;462.70;;;170.03;;
8407;SDS011;4241;48.452;9.216;2022-10-18T03:58:37;461.07;;;171.13;;
8407;SDS011;4241;48.452;9.216;2022-10-18T04:01:05;462.50;;;169.50;;
8407;SDS011;4241;48.452;9.216;2022-10-18T04:03:32;462.30;;;168.33;;
8407;SDS011;4241;48.452;9.216;2022-10-18T04:05:59;463.73;;;170.73;;
8407;SDS011;4241;48.452;9.216;2022-10-18T04:08:27;461.27;;;168.97;;
8407;SDS011;4241;48.452;9.216;2022-10-18T04:10:55;461.13;;;167.73;;
8407;SDS011;4241;48.452;9.216;2022-10-18T04:13:22;460.20;;;166.60;;
8407;SDS011;4241;48.452;9.216;2022-10-18T04:15:49;460.30;;;167.77;;
8407;SDS011;4241;48.452;9.216;2022-10-18T04:18:17;460.20;;;166.10;;
8407;SDS011;4241;48.452;9.216;2022-10-18T04:20:44;461.03;;;168.07;;
8407;SDS011;4241;48.452;9.216;2022-10-18T04:23:11;461.57;;;168.37;;
8407;SDS011;4241;48.452;9.216;2022-10-18T04:25:38;461.73;;;168.63;;
8407;SDS011;4241;48.452;9.216;2022-10-18T04:28:05;461.07;;;169.23;;
8407;SDS011;4241;48.452;9.216;2022-10-18T04:30:32;461.53;;;168.63;;
8407;SDS011;4241;48.452;9.216;2022-10-18T04:32:59;462.67;;;171.17;;
8407;SDS011;4241;48.452;9.216;2022-10-18T04:35:28;462.90;;;170.50;;
8407;SDS011;4241;48.452;9.216;2022-10-18T04:37:55;462.37;;;168.60;;
8407;SDS011;4241;48.452;9.216;2022-10-18T04:40:22;461.40;;;167.43;;
8407;SDS011;4241;48.452;9.216;2022-10-18T04:42:49;460.83;;;168.17;;
8407;SDS011;4241;48.452;9.216;2022-10-18T04:45:16;462.27;;;169.27;;
8407;SDS011;4241;48.452;9.216;2022-10-18T04:47:43;463.97;;;171.37;;
8407;SDS011;4241;48.452;9.216;2022-10-18T04:50:10;462.83;;;170.93;;
8407;SDS011;4241;48.452;9.216;2022-10-18T04:52:38;460.30;;;168.13;;
8407;SDS011;4241;48.452;9.216;2022-10-18T04:55:05;464.57;;;172.50;;
8407;SDS011;4241;48.452;9.216;2022-10-18T04:57:33;465.87;;;173.80;;
8407;SDS011;4241;48.452;9.216;2022-10-18T05:00:00;461.80;;;170.53;;
8407;SDS011;4241;48.452;9.216;2022-10-18T05:02:28;469.90;;;177.77;;
8407;SDS011;4241;48.452;9.216;2022-10-18T05:04:55;465.27;;;173.37;;
8407;SDS011;4241;48.452;9.216;2022-10-18T05:07:22;470.70;;;177.03;;
8407;SDS011;4241;48.452;9.216;2022-10-18T05:09:50;466.27;;;173.60;;
8407;SDS011;4241;48.452;9.216;2022-10-18T05:12:17;471.27;;;180.60;;
8407;SDS011;4241;48.452;9.216;2022-10-18T05:14:44;463.57;;;173.60;;
8407;SDS011;4241;48.452;9.216;2022-10-18T05:17:11;468.30;;;177.13;;
8407;SDS011;4241;48.452;9.216;2022-10-18T05:19:38;464.03;;;172.07;;
8407;SDS011;4241;48.452;9.216;2022-10-18T05:22:06;463.13;;;171.73;;
8407;SDS011;4241;48.452;9.216;2022-10-18T05:24:33;464.00;;;172.20;;
8407;SDS011;4241;48.452;9.216;2022-10-18T05:27:01;464.70;;;174.13;;
8407;SDS011;4241;48.452;9.216;2022-10-18T05:29:28;461.70;;;170.77;;
8407;SDS011;4241;48.452;9.216;2022-10-18T05:31:55;460.23;;;167.17;;
8407;SDS011;4241;48.452;9.216;2022-10-18T05:34:22;465.13;;;170.87;;
8407;SDS011;4241;48.452;9.216;2022-10-18T05:36:51;461.50;;;167.03;;
8407;SDS011;4241;48.452;9.216;2022-10-18T05:39:18;463.53;;;170.77;;
8407;SDS011;4241;48.452;9.216;2022-10-18T05:41:45;463.70;;;172.70;;
8407;SDS011;4241;48.452;9.216;2022-10-18T05:44:13;460.90;;;169.00;;
8407;SDS011;4241;48.452;9.216;2022-10-18T05:46:40;463.40;;;172.10;;
8407;SDS011;4241;48.452;9.216;2022-10-18T05:49:08;463.93;;;169.27;;
8407;SDS011;4241;48.452;9.216;2022-10-18T05:51:35;461.83;;;168.13;;
8407;SDS011;4241;48.452;9.216;2022-10-18T05:54:02;460.70;;;168.43;;
8407;SDS011;4241;48.452;9.216;2022-10-18T05:56:29;462.57;;;168.60;;
8407;SDS011;4241;48.452;9.216;2022-10-18T05:58:57;459.67;;;167.40;;
8407;SDS011;4241;48.452;9.216;2022-10-18T06:01:25;460.37;;;166.87;;
8407;SDS011;4241;48.452;9.216;2022-10-18T06:03:52;461.77;;;168.40;;
8407;SDS011;4241;48.452;9.216;2022-10-18T06:06:19;464.87;;;171.67;;
8407;SDS011;4241;48.452;9.216;2022-10-18T06:08:47;462.73;;;166.73;;
8407;SDS011;4241;48.452;9.216;2022-10-18T06:11:16;465.93;;;170.47;;
8407;SDS011;4241;48.452;9.216;2022-10-18T06:13:45;465.53;;;171.13;;
8407;SDS011;4241;48.452;9.216;2022-10-18T06:16:14;457.90;;;163.33;;
8407;SDS011;4241;48.452;9.216;2022-10-18T06:18:45;467.50;;;173.50;;
8407;SDS011;4241;48.452;9.216;2022-10-18T06:21:14;464.10;;;170.47;;
8407;SDS011;4241;48.452;9.216;2022-10-18T06:23:42;459.93;;;164.97;;
8407;SDS011;4241;48.452;9.216;2022-10-18T06:26:09;457.47;;;163.63;;
8407;SDS011;4241;48.452;9.216;2022-10-18T06:28:36;458.87;;;166.47;;
8407;SDS011;4241;48.452;9.216;2022-10-18T06:31:04;456.63;;;162.70;;
8407;SDS011;4241;48.452;9.216;2022-10-18T06:33:32;463.67;;;169.50;;
8407;SDS011;4241;48.452;9.216;2022-10-18T06:36:03;457.00;;;160.80;;
8407;SDS011;4241;48.452;9.216;2022-10-18T06:38:32;456.27;;;162.60;;
8407;SDS011;4241;48.452;9.216;2022-10-18T06:40:59;458.43;;;165.33;;
8407;SDS011;4241;48.452;9.216;2022-10-18T06:43:27;459.17;;;166.50;;
8407;SDS011;4241;48.452;9.216;2022-10-18T06:45:54;462.07;;;168.67;;
8407;SDS011;4241;48.452;9.216;2022-10-18T06:48:21;461.60;;;168.03;;
8407;SDS011;4241;48.452;9.216;2022-10-18T06:50:50;460.70;;;170.37;;
8407;SDS011;4241;48.452;9.216;2022-10-18T06:53:19;469.70;;;178.13;;
8407;SDS011;4241;48.452;9.216;2022-10-18T06:55:46;463.60;;;172.43;;
8407;SDS011;4241;48.452;9.216;2022-10-18T06:58:13;463.33;;;171.70;;
8407;SDS011;4241;48.452;9.216;2022-10-18T07:00:40;464.57;;;173.33;;
8407;SDS011;4241;48.452;9.216;2022-10-18T07:03:09;464.67;;;175.00;;
8407;SDS011;4241;48.452;9.216;2022-10-18T07:05:36;465.27;;;175.77;;
8407;SDS011;4241;48.452;9.216;2022-10-18T07:08:03;468.83;;;179.43;;
8407;SDS011;4241;48.452;9.216;2022-10-18T07:10:32;467.90;;;178.87;;
8407;SDS011;4241;48.452;9.216;2022-10-18T07:12:59;469.90;;;182.40;;
8407;SDS011;4241;48.452;9.216;2022-10-18T07:15:26;467.43;;;179.97;;
8407;SDS011;4241;48.452;9.216;2022-10-18T07:17:53;471.53;;;185.97;;
8407;SDS011;4241;48.452;9.216;2022-10-18T07:20:20;474.37;;;189.73;;
8407;SDS011;4241;48.452;9.216;2022-10-18T07:22:47;470.37;;;184.27;;
8407;SDS011;4241;48.452;9.216;2022-10-18T07:25:14;470.23;;;186.07;;
8407;SDS011;4241;48.452;9.216;2022-10-18T07:27:43;470.63;;;187.03;;
8407;SDS011;4241;48.452;9.216;2022-10-18T07:30:10;470.47;;;188.50;;
8407;SDS011;4241;48.452;9.216;2022-10-18T07:32:37;474.00;;;192.80;;
8407;SDS011;4241;48.452;9.216;2022-10-18T07:35:04;473.73;;;192.43;;
8407;SDS011;4241;48.452;9.216;2022-10-18T07:37:32;471.00;;;189.73;;
8407;SDS011;4241;48.452;9.216;2022-10-18T07:39:59;474.07;;;191.97;;
8407;SDS011;4241;48.452;9.216;2022-10-18T07:42:26;477.30;;;197.10;;
8407;SDS011;4241;48.452;9.216;2022-10-18T07:44:54;473.83;;;194.77;;
8407;SDS011;4241;48.452;9.216;2022-10-18T07:47:21;472.97;;;193.93;;
8407;SDS011;4241;48.452;9.216;2022-10-18T07:49:48;473.50;;;195.17;;
8407;SDS011;4241;48.452;9.216;2022-10-18T07:52:15;475.03;;;196.93;;
8407;SDS011;4241;48.452;9.216;2022-10-18T07:54:42;475.43;;;197.00;;
8407;SDS011;4241;48.452;9.216;2022-10-18T07:57:09;473.90;;;196.93;;
8407;SDS011;4241;48.452;9.216;2022-10-18T07:59:36;477.90;;;202.43;;
8407;SDS011;4241;48.452;9.216;2022-10-18T08:02:05;476.27;;;201.63;;
8407;SDS011;4241;48.452;9.216;2022-10-18T08:04:32;476.50;;;203.73;;
8407;SDS011;4241;48.452;9.216;2022-10-18T08:06:59;475.60;;;203.10;;
8407;SDS011;4241;48.452;9.216;2022-10-18T08:09:26;474.93;;;200.10;;
8407;SDS011;4241;48.452;9.216;2022-10-18T08:11:53;480.87;;;212.23;;
8407;SDS011;4241;48.452;9.216;2022-10-18T08:14:20;475.60;;;206.03;;
8407;SDS011;4241;48.452;9.216;2022-10-18T08:16:47;479.27;;;209.80;;
8407;SDS011;4241;48.452;9.216;2022-10-18T08:19:16;479.30;;;210.30;;
8407;SDS011;4241;48.452;9.216;2022-10-18T08:21:43;479.73;;;214.30;;
8407;SDS011;4241;48.452;9.216;2022-10-18T08:24:10;482.67;;;220.30;;
8407;SDS011;4241;48.452;9.216;2022-10-18T08:26:37;481.13;;;219.37;;
8407;SDS011;4241;48.452;9.216;2022-10-18T08:29:04;479.60;;;219.43;;
8407;SDS011;4241;48.452;9.216;2022-10-18T08:31:31;493.40;;;232.70;;
8407;SDS011;4241;48.452;9.216;2022-10-18T08:33:58;482.07;;;223.37;;
8407;SDS011;4241;48.452;9.216;2022-10-18T08:36:26;484.50;;;227.63;;
8407;SDS011;4241;48.452;9.216;2022-10-18T08:38:53;485.20;;;227.80;;
8407;SDS011;4241;48.452;9.216;2022-10-18T08:44:33;485.70;;;232.57;;
8407;SDS011;4241;48.452;9.216;2022-10-18T08:47:10;485.07;;;230.93;;
8407;SDS011;4241;48.452;9.216;2022-10-18T08:49:40;485.03;;;229.70;;
8407;SDS011;4241;48.452;9.216;2022-10-18T08:52:13;490.00;;;238.40;;
8407;SDS011;4241;48.452;9.216;2022-10-18T08:54:50;490.17;;;236.97;;
8407;SDS011;4241;48.452;9.216;2022-10-18T08:57:21;484.97;;;233.13;;
8407;SDS011;4241;48.452;9.216;2022-10-18T08:59:48;484.87;;;231.47;;
8407;SDS011;4241;48.452;9.216;2022-10-18T09:02:18;489.33;;;236.80;;
8407;SDS011;4241;48.452;9.216;2022-10-18T09:04:58;483.90;;;231.10;;
8407;SDS011;4241;48.452;9.216;2022-10-18T09:07:48;487.43;;;234.97;;
8407;SDS011;4241;48.452;9.216;2022-10-18T09:10:43;483.63;;;232.77;;
8407;SDS011;4241;48.452;9.216;2022-10-18T09:13:23;489.20;;;237.53;;
8407;SDS011;4241;48.452;9.216;2022-10-18T09:16:10;484.40;;;235.70;;
8407;SDS011;4241;48.452;9.216;2022-10-18T09:18:46;486.00;;;237.33;;
8407;SDS011;4241;48.452;9.216;2022-10-18T09:21:22;490.80;;;243.13;;
8407;SDS011;4241;48.452;9.216;2022-10-18T09:23:56;486.03;;;239.33;;
8407;SDS011;4241;48.452;9.216;2022-10-18T09:26:31;487.47;;;239.77;;
8407;SDS011;4241;48.452;9.216;2022-10-18T09:29:07;488.27;;;239.10;;
8407;SDS011;4241;48.452;9.216;2022-10-18T09:31:55;488.90;;;242.77;;
8407;SDS011;4241;48.452;9.216;2022-10-18T09:34:29;487.83;;;240.10;;
8407;SDS011;4241;48.452;9.216;2022-10-18T09:37:02;488.53;;;244.77;;
8407;SDS011;4241;48.452;9.216;2022-10-18T09:39:32;487.33;;;240.17;;
8407;SDS011;4241;48.452;9.216;2022-10-18T09:42:02;486.83;;;243.20;;
8407;SDS011;4241;48.452;9.216;2022-10-18T09:44:36;490.73;;;246.63;;
8407;SDS011;4241;48.452;9.216;2022-10-18T09:47:09;490.53;;;249.30;;
8407;SDS011;4241;48.452;9.216;2022-10-18T09:49:40;488.13;;;247.33;;
8407;SDS011;4241;48.452;9.216;2022-10-18T09:52:12;489.70;;;248.03;;
8407;SDS011;4241;48.452;9.216;2022-10-18T09:54:45;493.33;;;252.03;;
8407;SDS011;4241;48.452;9.216;2022-10-18T09:57:21;489.17;;;249.57;;
8407;SDS011;4241;48.452;9.216;2022-10-18T09:59:52;489.17;;;246.97;;
8407;SDS011;4241;48.452;9.216;2022-10-18T10:02:19;492.53;;;247.23;;
8407;SDS011;4241;48.452;9.216;2022-10-18T10:04:47;489.17;;;247.30;;
8407;SDS011;4241;48.452;9.216;2022-10-18T10:07:15;493.93;;;251.47;;
8407;SDS011;4241;48.452;9.216;2022-10-18T10:09:46;493.13;;;251.07;;
8407;SDS011;4241;48.452;9.216;2022-10-18T10:12:27;491.07;;;247.07;;
8407;SDS011;4241;48.452;9.216;2022-10-18T10:15:11;486.07;;;239.33;;
8407;SDS011;4241;48.452;9.216;2022-10-18T10:17:44;485.07;;;241.63;;
8407;SDS011;4241;48.452;9.216;2022-10-18T10:20:20;488.90;;;245.30;;
8407;SDS011;4241;48.452;9.216;2022-10-18T10:22:48;490.13;;;251.03;;
8407;SDS011;4241;48.452;9.216;2022-10-18T10:25:25;492.77;;;253.50;;
8407;SDS011;4241;48.452;9.216;2022-10-18T10:27:56;494.27;;;252.77;;
8407;SDS011;4241;48.452;9.216;2022-10-18T10:30:29;490.73;;;250.17;;
8407;SDS011;4241;48.452;9.216;2022-10-18T10:32:58;490.53;;;251.57;;
8407;SDS011;4241;48.452;9.216;2022-10-18T10:35:29;490.17;;;251.40;;
8407;SDS011;4241;48.452;9.216;2022-10-18T10:37:57;489.77;;;252.67;;
8407;SDS011;4241;48.452;9.216;2022-10-18T10:40:26;491.03;;;256.23;;
8407;SDS011;4241;48.452;9.216;2022-10-18T10:43:04;490.60;;;256.80;;
8407;SDS011;4241;48.452;9.216;2022-10-18T10:45:40;489.73;;;254.73;;
8407;SDS011;4241;48.452;9.216;2022-10-18T10:48:20;492.87;;;258.23;;
8407;SDS011;4241;48.452;9.216;2022-10-18T10:50:50;489.90;;;253.70;;
8407;SDS011;4241;48.452;9.216;2022-10-18T10:53:27;491.13;;;256.40;;
8407;SDS011;4241;48.452;9.216;2022-10-18T10:55:59;490.97;;;255.93;;
8407;SDS011;4241;48.452;9.216;2022-10-18T10:58:28;489.67;;;255.57;;
8407;SDS011;4241;48.452;9.216;2022-10-18T11:01:02;490.97;;;256.33;;
8407;SDS011;4241;48.452;9.216;2022-10-18T11:03:47;489.90;;;255.93;;
8407;SDS011;4241;48.452;9.216;2022-10-18T11:06:33;494.23;;;262.00;;
8407;SDS011;4241;48.452;9.216;2022-10-18T11:09:14;494.57;;;259.47;;
8407;SDS011;4241;48.452;9.216;2022-10-18T11:12:11;492.97;;;259.17;;
8407;SDS011;4241;48.452;9.216;2022-10-18T11:14:59;490.93;;;257.37;;
8407;SDS011;4241;48.452;9.216;2022-10-18T11:17:36;492.80;;;258.17;;
8407;SDS011;4241;48.452;9.216;2022-10-18T11:20:10;492.80;;;261.30;;
8407;SDS011;4241;48.452;9.216;2022-10-18T11:22:46;491.37;;;259.60;;
8407;SDS011;4241;48.452;9.216;2022-10-18T11:25:24;491.37;;;259.47;;
8407;SDS011;4241;48.452;9.216;2022-10-18T11:27:58;494.97;;;264.90;;
8407;SDS011;4241;48.452;9.216;2022-10-18T11:30:40;493.63;;;265.90;;
8407;SDS011;4241;48.452;9.216;2022-10-18T11:33:21;493.13;;;264.00;;
8407;SDS011;4241;48.452;9.216;2022-10-18T11:35:53;495.43;;;270.63;;
8407;SDS011;4241;48.452;9.216;2022-10-18T11:38:31;494.93;;;270.60;;
8407;SDS011;4241;48.452;9.216;2022-10-18T11:41:16;493.53;;;266.47;;
8407;SDS011;4241;48.452;9.216;2022-10-18T11:43:51;492.77;;;263.77;;
8407;SDS011;4241;48.452;9.216;2022-10-18T11:46:23;491.77;;;263.90;;
8407;SDS011;4241;48.452;9.216;2022-10-18T11:49:00;495.03;;;270.00;;
8407;SDS011;4241;48.452;9.216;2022-10-18T11:51:38;499.30;;;276.93;;
8407;SDS011;4241;48.452;9.216;2022-10-18T11:54:22;493.93;;;270.37;;
8407;SDS011;4241;48.452;9.216;2022-10-18T11:57:08;498.27;;;278.23;;
8407;SDS011;4241;48.452;9.216;2022-10-18T11:59:51;494.97;;;272.27;;
8407;SDS011;4241;48.452;9.216;2022-10-18T12:02:35;499.87;;;277.23;;
8407;SDS011;4241;48.452;9.216;2022-10-18T12:05:17;495.20;;;270.83;;
8407;SDS011;4241;48.452;9.216;2022-10-18T12:07:46;492.50;;;268.67;;
8407;SDS011;4241;48.452;9.216;2022-10-18T12:10:18;507.20;;;281.53;;
8407;SDS011;4241;48.452;9.216;2022-10-18T12:12:47;495.27;;;271.67;;
8407;SDS011;4241;48.452;9.216;2022-10-18T12:15:20;493.93;;;272.53;;
8407;SDS011;4241;48.452;9.216;2022-10-18T12:17:49;496.10;;;275.40;;
8407;SDS011;4241;48.452;9.216;2022-10-18T12:20:24;494.17;;;272.13;;
8407;SDS011;4241;48.452;9.216;2022-10-18T12:22:55;497.20;;;277.33;;
8407;SDS011;4241;48.452;9.216;2022-10-18T12:25:27;494.93;;;275.27;;
8407;SDS011;4241;48.452;9.216;2022-10-18T12:27:56;494.20;;;273.07;;
8407;SDS011;4241;48.452;9.216;2022-10-18T12:30:33;498.07;;;277.40;;
8407;SDS011;4241;48.452;9.216;2022-10-18T12:33:08;492.70;;;270.27;;
8407;SDS011;4241;48.452;9.216;2022-10-18T12:35:42;493.90;;;270.17;;
8407;SDS011;4241;48.452;9.216;2022-10-18T12:38:19;499.20;;;274.80;;
8407;SDS011;4241;48.452;9.216;2022-10-18T12:40:49;495.40;;;269.17;;
8407;SDS011;4241;48.452;9.216;2022-10-18T12:43:20;492.40;;;266.00;;
8407;SDS011;4241;48.452;9.216;2022-10-18T12:45:51;492.60;;;264.27;;
8407;SDS011;4241;48.452;9.216;2022-10-18T12:48:33;494.30;;;264.57;;
8407;SDS011;4241;48.452;9.216;2022-10-18T12:51:04;489.67;;;258.97;;
8407;SDS011;4241;48.452;9.216;2022-10-18T12:53:37;494.40;;;264.30;;
8407;SDS011;4241;48.452;9.216;2022-10-18T13:02:27;491.33;;;255.50;;
8407;SDS011;4241;48.452;9.216;2022-10-18T13:04:58;490.83;;;257.50;;
8407;SDS011;4241;48.452;9.216;2022-10-18T13:07:33;496.40;;;266.10;;
8407;SDS011;4241;48.452;9.216;2022-10-18T13:13:26;500.47;;;268.73;;
8407;SDS011;4241;48.452;9.216;2022-10-18T13:16:02;489.40;;;258.07;;
8407;SDS011;4241;48.452;9.216;2022-10-18T13:18:40;495.90;;;267.07;;
8407;SDS011;4241;48.452;9.216;2022-10-18T13:21:17;491.40;;;260.10;;
8407;SDS011;4241;48.452;9.216;2022-10-18T13:23:56;491.97;;;262.27;;
8407;SDS011;4241;48.452;9.216;2022-10-18T13:26:40;492.43;;;259.63;;
8407;SDS011;4241;48.452;9.216;2022-10-18T13:29:20;490.87;;;252.93;;
8407;SDS011;4241;48.452;9.216;2022-10-18T13:31:59;489.10;;;251.47;;
8407;SDS011;4241;48.452;9.216;2022-10-18T13:34:40;491.13;;;255.73;;
8407;SDS011;4241;48.452;9.216;2022-10-18T13:37:17;490.83;;;256.53;;
8407;SDS011;4241;48.452;9.216;2022-10-18T13:39:48;491.20;;;254.97;;
8407;SDS011;4241;48.452;9.216;2022-10-18T13:42:18;496.20;;;259.97;;
8407;SDS011;4241;48.452;9.216;2022-10-18T13:44:53;490.00;;;253.70;;
8407;SDS011;4241;48.452;9.216;2022-10-18T13:47:40;491.50;;;255.37;;
8407;SDS011;4241;48.452;9.216;2022-10-18T13:50:18;491.50;;;257.33;;
8407;SDS011;4241;48.452;9.216;2022-10-18T13:59:30;489.30;;;250.57;;
8407;SDS011;4241;48.452;9.216;2022-10-18T14:02:20;490.97;;;253.13;;
8407;SDS011;4241;48.452;9.216;2022-10-18T14:05:13;489.80;;;252.47;;
8407;SDS011;4241;48.452;9.216;2022-10-18T14:08:03;494.83;;;254.60;;
8407;SDS011;4241;48.452;9.216;2022-10-18T14:10:39;489.03;;;249.13;;
8407;SDS011;4241;48.452;9.216;2022-10-18T14:13:16;490.50;;;253.73;;
8407;SDS011;4241;48.452;9.216;2022-10-18T14:15:48;489.07;;;252.03;;
8407;SDS011;4241;48.452;9.216;2022-10-18T14:18:20;489.13;;;250.50;;
8407;SDS011;4241;48.452;9.216;2022-10-18T14:20:56;487.43;;;249.60;;
8407;SDS011;4241;48.452;9.216;2022-10-18T14:23:28;487.40;;;250.87;;
8407;SDS011;4241;48.452;9.216;2022-10-18T14:26:04;490.07;;;253.73;;
8407;SDS011;4241;48.452;9.216;2022-10-18T14:28:33;487.27;;;249.43;;
8407;SDS011;4241;48.452;9.216;2022-10-18T14:31:00;495.00;;;255.07;;
8407;SDS011;4241;48.452;9.216;2022-10-18T14:33:31;491.00;;;252.77;;
8407;SDS011;4241;48.452;9.216;2022-10-18T14:36:03;489.43;;;253.90;;
8407;SDS011;4241;48.452;9.216;2022-10-18T14:38:33;486.63;;;248.80;;
8407;SDS011;4241;48.452;9.216;2022-10-18T14:41:04;489.10;;;251.10;;
8407;SDS011;4241;48.452;9.216;2022-10-18T14:43:36;488.17;;;247.37;;
8407;SDS011;4241;48.452;9.216;2022-10-18T14:46:07;488.90;;;249.27;;
8407;SDS011;4241;48.452;9.216;2022-10-18T14:48:35;488.33;;;249.10;;
8407;SDS011;4241;48.452;9.216;2022-10-18T14:51:05;489.83;;;251.20;;
8407;SDS011;4241;48.452;9.216;2022-10-18T14:53:38;487.77;;;246.23;;
8407;SDS011;4241;48.452;9.216;2022-10-18T14:56:06;489.00;;;248.50;;
8407;SDS011;4241;48.452;9.216;2022-10-18T14:58:33;489.17;;;245.30;;
8407;SDS011;4241;48.452;9.216;2022-10-18T15:01:02;486.93;;;245.10;;
8407;SDS011;4241;48.452;9.216;2022-10-18T15:03:31;486.87;;;243.53;;
8407;SDS011;4241;48.452;9.216;2022-10-18T15:06:02;486.90;;;243.77;;